createdAt,value
2022-10-05T00:04:46.086Z,8.66
2022-10-05T00:10:17.167Z,8.63
2022-10-05T00:15:39.748Z,8.63
2022-10-05T00:21:01.232Z,8.61
2022-10-05T00:26:24.459Z,8.54
2022-10-05T00:31:47.036Z,8.53
2022-10-05T00:37:08.203Z,8.54
2022-10-05T00:42:42.507Z,8.53
2022-10-05T00:48:17.160Z,8.47
2022-10-05T00:53:46.122Z,8.45
2022-10-05T00:59:18.209Z,8.40
2022-10-05T01:04:49.312Z,8.40
2022-10-05T01:10:19.371Z,8.38
2022-10-05T01:15:50.685Z,8.35
2022-10-05T01:21:19.220Z,8.31
2022-10-05T01:26:59.562Z,8.28
2022-10-05T01:32:28.795Z,8.19
2022-10-05T01:38:00.913Z,8.14
2022-10-05T01:43:31.894Z,8.11
2022-10-05T01:49:17.756Z,8.12
2022-10-05T01:54:51.106Z,8.08
2022-10-05T02:00:14.909Z,8.07
2022-10-05T02:05:44.631Z,7.98
2022-10-05T02:11:09.109Z,8.00
2022-10-05T02:16:35.014Z,7.97
2022-10-05T02:22:05.113Z,7.95
2022-10-05T02:27:31.861Z,7.97
2022-10-05T02:32:57.565Z,7.91
2022-10-05T02:38:29.371Z,7.79
2022-10-05T02:43:58.708Z,7.81
2022-10-05T02:49:29.772Z,7.72
2022-10-05T02:55:05.551Z,7.63
2022-10-05T03:00:31.613Z,7.63
2022-10-05T03:05:59.650Z,7.55
2022-10-05T03:11:31.218Z,7.53
2022-10-05T03:17:07.430Z,7.53
2022-10-05T03:22:42.227Z,7.48
2022-10-05T03:28:13.322Z,7.56
2022-10-05T03:33:43.718Z,7.53
2022-10-05T03:39:11.789Z,7.53
2022-10-05T03:44:45.481Z,7.57
2022-10-05T03:50:23.322Z,7.58
2022-10-05T03:55:49.248Z,7.54
2022-10-05T04:01:18.181Z,7.42
2022-10-05T04:06:45.450Z,7.42
2022-10-05T04:12:16.741Z,7.48
2022-10-05T04:17:43.489Z,7.65
2022-10-05T04:23:16.667Z,7.62
2022-10-05T04:28:47.797Z,7.34
2022-10-05T04:34:28.451Z,7.24
2022-10-05T04:40:05.548Z,7.26
2022-10-05T04:45:41.282Z,7.13
2022-10-05T04:51:18.160Z,6.97
2022-10-05T04:56:43.598Z,6.88
2022-10-05T05:02:15.603Z,6.84
2022-10-05T05:07:45.759Z,6.74
2022-10-05T05:13:21.796Z,6.63
2022-10-05T05:18:55.171Z,6.56
2022-10-05T05:24:24.555Z,6.56
2022-10-05T05:29:59.003Z,6.55
2022-10-05T05:35:56.490Z,6.51
2022-10-05T05:41:28.079Z,6.57
2022-10-05T05:47:04.090Z,6.58
2022-10-05T05:52:35.272Z,6.67
2022-10-05T05:58:02.238Z,6.77
2022-10-05T06:03:28.490Z,6.81
2022-10-05T06:08:53.032Z,6.89
2022-10-05T06:14:35.154Z,7.01
2022-10-05T06:20:04.723Z,7.17
2022-10-05T06:25:38.411Z,7.27
2022-10-05T06:31:13.450Z,7.48
2022-10-05T06:36:45.461Z,7.73
2022-10-05T06:42:24.498Z,7.94
2022-10-05T06:48:18.534Z,8.16
2022-10-05T07:02:58.605Z,8.64
2022-10-05T07:08:04.520Z,8.82
2022-10-05T07:13:35.902Z,8.98
2022-10-05T07:18:51.427Z,9.20
2022-10-05T07:24:03.595Z,9.45
2022-10-05T07:29:23.038Z,9.81
2022-10-05T07:34:35.132Z,10.06
2022-10-05T07:39:59.837Z,10.34
2022-10-05T07:45:11.010Z,10.62
2022-10-05T07:50:23.675Z,10.83
2022-10-05T07:55:27.578Z,11.19
2022-10-05T08:00:52.476Z,11.59
2022-10-05T08:05:56.049Z,11.93
2022-10-05T08:11:03.290Z,12.21
2022-10-05T08:16:12.491Z,12.37
2022-10-05T08:21:16.841Z,12.53
2022-10-05T08:26:25.286Z,12.67
2022-10-05T08:31:30.181Z,12.90
2022-10-05T08:36:50.349Z,13.02
2022-10-05T08:42:20.047Z,13.39
2022-10-05T08:47:42.292Z,13.53
2022-10-05T08:53:12.261Z,13.59
2022-10-05T08:58:43.187Z,13.56
2022-10-05T09:04:05.620Z,13.44
2022-10-05T09:09:31.000Z,13.66
2022-10-05T09:14:56.614Z,13.95
2022-10-05T09:20:18.472Z,14.19
2022-10-05T09:25:24.579Z,14.50
2022-10-05T09:30:42.841Z,14.75
2022-10-05T09:36:09.448Z,15.08
2022-10-05T09:41:46.465Z,15.31
2022-10-05T09:47:20.832Z,15.50
2022-10-05T09:52:48.569Z,15.56
2022-10-05T09:58:20.331Z,15.64
2022-10-05T10:03:44.121Z,15.83
2022-10-05T10:08:58.082Z,16.04
2022-10-05T10:14:17.064Z,16.24
2022-10-05T10:19:40.869Z,16.48
2022-10-05T10:25:00.921Z,16.67
2022-10-05T10:30:48.329Z,16.79
2022-10-05T10:36:00.499Z,16.48
2022-10-05T10:41:31.699Z,16.26
2022-10-05T10:46:46.286Z,16.57
2022-10-05T10:52:02.832Z,17.04
2022-10-05T10:57:07.123Z,17.21
2022-10-05T11:02:32.841Z,17.60
2022-10-05T11:08:00.116Z,17.99
2022-10-05T11:13:37.091Z,18.33
2022-10-05T11:18:59.156Z,18.21
2022-10-05T11:24:44.754Z,18.46
2022-10-05T11:30:06.702Z,18.67
2022-10-05T11:35:31.105Z,19.05
2022-10-05T11:41:07.410Z,19.27
2022-10-05T11:46:18.176Z,19.28
2022-10-05T11:51:35.250Z,19.22
2022-10-05T11:56:40.985Z,19.15
2022-10-05T12:01:50.865Z,18.98
2022-10-05T12:07:05.734Z,18.82
2022-10-05T12:12:15.618Z,18.84
2022-10-05T12:17:24.643Z,19.04
2022-10-05T12:22:32.755Z,19.22
2022-10-05T12:27:39.326Z,19.19
2022-10-05T12:32:46.469Z,19.25
2022-10-05T12:37:54.642Z,19.02
2022-10-05T12:43:09.775Z,19.33
2022-10-05T12:48:25.158Z,19.42
2022-10-05T12:53:43.260Z,19.26
2022-10-05T12:58:57.152Z,19.18
2022-10-05T13:04:11.356Z,19.19
2022-10-05T13:09:18.815Z,19.42
2022-10-05T13:14:44.185Z,19.61
2022-10-05T13:19:47.850Z,19.74
2022-10-05T13:24:59.980Z,19.79
2022-10-05T13:30:04.219Z,19.86
2022-10-05T13:35:24.029Z,19.88
2022-10-05T13:40:33.243Z,19.78
2022-10-05T13:45:42.243Z,19.79
2022-10-05T13:50:49.290Z,19.90
2022-10-05T13:55:59.310Z,20.14
2022-10-05T14:01:03.253Z,20.14
2022-10-05T14:06:12.461Z,20.09
2022-10-05T14:11:31.273Z,20.13
2022-10-05T14:16:35.486Z,20.04
2022-10-05T14:21:49.512Z,19.90
2022-10-05T14:26:55.557Z,19.76
2022-10-05T14:32:02.040Z,19.67
2022-10-05T14:37:10.130Z,19.61
2022-10-05T14:42:19.086Z,19.39
2022-10-05T14:47:23.779Z,19.33
2022-10-05T14:52:32.446Z,19.10
2022-10-05T14:57:42.510Z,18.92
2022-10-05T15:03:35.530Z,18.81
2022-10-05T15:08:48.076Z,18.63
2022-10-05T15:13:51.222Z,18.22
2022-10-05T15:18:58.760Z,17.97
2022-10-05T15:24:04.204Z,17.76
2022-10-05T15:29:20.064Z,17.48
2022-10-05T15:34:29.463Z,17.24
2022-10-05T15:39:37.175Z,17.15
2022-10-05T15:44:49.606Z,17.13
2022-10-05T15:50:03.019Z,17.02
2022-10-05T15:55:27.809Z,16.94
2022-10-05T16:00:34.363Z,16.74
2022-10-05T16:05:59.616Z,16.56
2022-10-05T16:11:01.694Z,16.61
2022-10-05T16:16:18.041Z,16.51
2022-10-05T16:21:30.335Z,16.41
2022-10-05T16:26:47.638Z,16.29
2022-10-05T16:31:56.882Z,15.98
2022-10-05T16:37:04.663Z,15.84
2022-10-05T16:42:18.551Z,15.81
2022-10-05T16:47:35.832Z,15.18
2022-10-05T16:52:40.699Z,14.87
2022-10-05T16:57:46.407Z,14.59
2022-10-05T17:03:05.650Z,14.39
2022-10-05T17:08:26.518Z,14.24
2022-10-05T17:13:58.366Z,14.08
2022-10-05T17:19:19.290Z,14.05
2022-10-05T17:24:36.323Z,13.98
2022-10-05T17:29:48.244Z,13.85
2022-10-05T17:40:34.361Z,13.70
2022-10-05T17:46:01.493Z,13.67
2022-10-05T17:51:19.900Z,13.59
2022-10-05T17:56:23.379Z,13.53
2022-10-05T18:01:30.337Z,13.38
2022-10-05T18:06:37.517Z,13.31
2022-10-05T18:11:42.455Z,13.29
2022-10-05T18:17:00.839Z,13.28
2022-10-05T18:22:04.435Z,13.19
2022-10-05T18:27:27.448Z,13.12
2022-10-05T18:32:42.285Z,13.07
2022-10-05T18:37:54.408Z,12.94
2022-10-05T18:43:07.448Z,12.86
2022-10-05T18:48:18.208Z,12.81
2022-10-05T18:53:30.961Z,12.80
2022-10-05T18:58:42.630Z,12.81
2022-10-05T19:03:56.649Z,12.68
2022-10-05T19:09:10.915Z,12.74
2022-10-05T19:14:25.884Z,12.67
2022-10-05T19:19:50.197Z,12.67
2022-10-05T19:25:15.176Z,12.63
2022-10-05T19:30:23.079Z,12.48
2022-10-05T19:35:32.036Z,12.51
2022-10-05T19:40:40.913Z,12.40
2022-10-05T19:45:48.561Z,12.37
2022-10-05T19:50:57.413Z,12.31
2022-10-05T19:56:17.066Z,12.24
2022-10-05T20:01:27.431Z,12.19
2022-10-05T20:06:30.182Z,12.23
2022-10-05T20:11:32.408Z,12.22
2022-10-05T20:16:53.528Z,12.16
2022-10-05T20:21:58.717Z,12.15
2022-10-05T20:27:05.267Z,12.11
2022-10-05T20:32:09.941Z,12.10
2022-10-05T20:37:12.625Z,12.15
2022-10-05T20:42:14.086Z,12.01
2022-10-05T20:47:16.254Z,12.15
2022-10-05T20:52:17.009Z,11.99
2022-10-05T20:57:17.784Z,11.83
2022-10-05T21:02:20.460Z,11.85
2022-10-05T21:07:23.390Z,11.69
2022-10-05T21:12:24.127Z,11.62
2022-10-05T21:17:26.285Z,11.51
2022-10-05T21:22:27.056Z,11.44
2022-10-05T21:27:28.208Z,11.39
2022-10-05T21:32:30.352Z,11.45
2022-10-05T21:37:31.119Z,11.36
2022-10-05T21:42:32.161Z,11.38
2022-10-05T21:47:34.484Z,11.35
2022-10-05T21:52:36.457Z,11.35
2022-10-05T21:57:38.818Z,11.37
2022-10-05T22:02:40.988Z,11.41
2022-10-05T22:07:41.808Z,11.49
2022-10-05T22:12:42.635Z,11.50
2022-10-05T22:17:46.133Z,11.60
2022-10-05T22:22:46.896Z,11.89
2022-10-05T22:27:48.311Z,11.94
2022-10-05T22:32:50.402Z,11.90
2022-10-05T22:37:51.116Z,12.83
2022-10-05T22:42:53.216Z,13.87
2022-10-05T22:47:55.315Z,14.74
2022-10-05T22:52:56.131Z,15.26
2022-10-05T22:57:56.897Z,15.56
2022-10-05T23:02:59.028Z,15.65
2022-10-05T23:08:01.368Z,15.60
2022-10-05T23:13:02.654Z,15.75
2022-10-05T23:18:04.917Z,15.58
2022-10-05T23:23:05.845Z,15.43
2022-10-05T23:28:06.655Z,15.40
2022-10-05T23:33:08.878Z,15.16
2022-10-05T23:38:09.648Z,14.68
2022-10-05T23:43:10.411Z,14.26
2022-10-05T23:48:12.607Z,13.97
2022-10-05T23:53:13.425Z,13.83
2022-10-05T23:58:14.145Z,13.92
